sensor_id;sensor_type;location;lat;lon;timestamp;P1;durP1;ratioP1;P2;durP2;ratioP2
4061;SDS011;2046;47.064;15.456;2023-08-30T00:02:09;1.60;;;0.70;;
4061;SDS011;2046;47.064;15.456;2023-08-30T00:04:36;0.68;;;0.68;;
4061;SDS011;2046;47.064;15.456;2023-08-30T00:07:02;1.45;;;0.70;;
4061;SDS011;2046;47.064;15.456;2023-08-30T00:09:29;0.80;;;0.60;;
4061;SDS011;2046;47.064;15.456;2023-08-30T00:11:56;0.52;;;0.43;;
4061;SDS011;2046;47.064;15.456;2023-08-30T00:14:22;0.60;;;0.60;;
4061;SDS011;2046;47.064;15.456;2023-08-30T00:16:50;0.55;;;0.55;;
4061;SDS011;2046;47.064;15.456;2023-08-30T00:19:17;0.68;;;0.68;;
4061;SDS011;2046;47.064;15.456;2023-08-30T00:21:43;0.68;;;0.68;;
4061;SDS011;2046;47.064;15.456;2023-08-30T00:24:10;0.68;;;0.60;;
4061;SDS011;2046;47.064;15.456;2023-08-30T00:26:37;0.82;;;0.70;;
4061;SDS011;2046;47.064;15.456;2023-08-30T00:29:04;0.70;;;0.70;;
4061;SDS011;2046;47.064;15.456;2023-08-30T00:31:30;1.15;;;0.60;;
4061;SDS011;2046;47.064;15.456;2023-08-30T00:33:57;0.60;;;0.60;;
4061;SDS011;2046;47.064;15.456;2023-08-30T00:36:23;0.60;;;0.50;;
4061;SDS011;2046;47.064;15.456;2023-08-30T00:38:50;0.73;;;0.50;;
4061;SDS011;2046;47.064;15.456;2023-08-30T00:41:17;0.70;;;0.70;;
4061;SDS011;2046;47.064;15.456;2023-08-30T00:43:43;2.55;;;0.60;;
4061;SDS011;2046;47.064;15.456;2023-08-30T00:46:10;0.45;;;0.45;;
4061;SDS011;2046;47.064;15.456;2023-08-30T00:48:37;1.25;;;0.90;;
4061;SDS011;2046;47.064;15.456;2023-08-30T00:51:04;2.47;;;0.80;;
4061;SDS011;2046;47.064;15.456;2023-08-30T00:53:30;0.50;;;0.50;;
4061;SDS011;2046;47.064;15.456;2023-08-30T00:55:58;0.77;;;0.77;;
4061;SDS011;2046;47.064;15.456;2023-08-30T00:58:25;0.47;;;0.47;;
4061;SDS011;2046;47.064;15.456;2023-08-30T01:00:53;1.50;;;0.60;;
4061;SDS011;2046;47.064;15.456;2023-08-30T01:03:19;0.70;;;0.70;;
4061;SDS011;2046;47.064;15.456;2023-08-30T01:05:48;2.22;;;0.70;;
4061;SDS011;2046;47.064;15.456;2023-08-30T01:08:14;0.57;;;0.57;;
4061;SDS011;2046;47.064;15.456;2023-08-30T01:11:03;0.85;;;0.65;;
4061;SDS011;2046;47.064;15.456;2023-08-30T01:13:32;0.75;;;0.73;;
4061;SDS011;2046;47.064;15.456;2023-08-30T01:16:00;0.60;;;0.60;;
4061;SDS011;2046;47.064;15.456;2023-08-30T01:18:26;0.60;;;0.60;;
4061;SDS011;2046;47.064;15.456;2023-08-30T01:20:55;0.68;;;0.68;;
4061;SDS011;2046;47.064;15.456;2023-08-30T01:26:13;0.60;;;0.60;;
4061;SDS011;2046;47.064;15.456;2023-08-30T01:28:40;0.50;;;0.50;;
4061;SDS011;2046;47.064;15.456;2023-08-30T01:31:07;0.50;;;0.50;;
4061;SDS011;2046;47.064;15.456;2023-08-30T01:33:36;0.52;;;0.50;;
4061;SDS011;2046;47.064;15.456;2023-08-30T01:36:03;0.57;;;0.57;;
4061;SDS011;2046;47.064;15.456;2023-08-30T01:38:31;0.60;;;0.60;;
4061;SDS011;2046;47.064;15.456;2023-08-30T01:40:58;0.60;;;0.60;;
4061;SDS011;2046;47.064;15.456;2023-08-30T01:43:26;0.85;;;0.52;;
4061;SDS011;2046;47.064;15.456;2023-08-30T01:45:55;1.35;;;0.52;;
4061;SDS011;2046;47.064;15.456;2023-08-30T01:48:22;0.70;;;0.70;;
4061;SDS011;2046;47.064;15.456;2023-08-30T01:50:50;0.55;;;0.55;;
4061;SDS011;2046;47.064;15.456;2023-08-30T01:53:17;0.68;;;0.60;;
4061;SDS011;2046;47.064;15.456;2023-08-30T01:55:44;0.70;;;0.60;;
4061;SDS011;2046;47.064;15.456;2023-08-30T01:58:11;1.33;;;0.50;;
4061;SDS011;2046;47.064;15.456;2023-08-30T02:00:38;0.60;;;0.40;;
4061;SDS011;2046;47.064;15.456;2023-08-30T02:05:37;0.52;;;0.52;;
4061;SDS011;2046;47.064;15.456;2023-08-30T02:08:09;1.92;;;0.85;;
4061;SDS011;2046;47.064;15.456;2023-08-30T02:10:41;0.60;;;0.60;;
4061;SDS011;2046;47.064;15.456;2023-08-30T02:13:07;0.55;;;0.55;;
4061;SDS011;2046;47.064;15.456;2023-08-30T02:15:37;1.45;;;0.75;;
4061;SDS011;2046;47.064;15.456;2023-08-30T02:18:05;2.55;;;0.60;;
4061;SDS011;2046;47.064;15.456;2023-08-30T02:20:32;1.05;;;0.70;;
4061;SDS011;2046;47.064;15.456;2023-08-30T02:22:59;0.32;;;0.32;;
4061;SDS011;2046;47.064;15.456;2023-08-30T02:25:39;0.52;;;0.50;;
4061;SDS011;2046;47.064;15.456;2023-08-30T02:28:06;0.57;;;0.57;;
4061;SDS011;2046;47.064;15.456;2023-08-30T02:30:33;2.10;;;0.70;;
4061;SDS011;2046;47.064;15.456;2023-08-30T02:32:59;0.80;;;0.50;;
4061;SDS011;2046;47.064;15.456;2023-08-30T02:35:26;0.70;;;0.68;;
4061;SDS011;2046;47.064;15.456;2023-08-30T02:37:52;1.70;;;0.60;;
4061;SDS011;2046;47.064;15.456;2023-08-30T02:40:19;1.20;;;0.75;;
4061;SDS011;2046;47.064;15.456;2023-08-30T02:42:46;0.50;;;0.50;;
4061;SDS011;2046;47.064;15.456;2023-08-30T02:45:12;2.15;;;0.75;;
4061;SDS011;2046;47.064;15.456;2023-08-30T02:47:39;0.63;;;0.60;;
4061;SDS011;2046;47.064;15.456;2023-08-30T02:50:06;0.90;;;0.43;;
4061;SDS011;2046;47.064;15.456;2023-08-30T02:52:32;1.95;;;0.60;;
4061;SDS011;2046;47.064;15.456;2023-08-30T02:54:59;0.40;;;0.40;;
4061;SDS011;2046;47.064;15.456;2023-08-30T02:57:26;0.50;;;0.50;;
4061;SDS011;2046;47.064;15.456;2023-08-30T02:59:52;0.52;;;0.52;;
4061;SDS011;2046;47.064;15.456;2023-08-30T03:02:19;0.70;;;0.70;;
4061;SDS011;2046;47.064;15.456;2023-08-30T03:04:45;0.60;;;0.60;;
4061;SDS011;2046;47.064;15.456;2023-08-30T03:07:12;0.60;;;0.60;;
4061;SDS011;2046;47.064;15.456;2023-08-30T03:09:39;0.75;;;0.70;;
4061;SDS011;2046;47.064;15.456;2023-08-30T03:12:06;0.68;;;0.68;;
4061;SDS011;2046;47.064;15.456;2023-08-30T03:14:32;0.70;;;0.70;;
4061;SDS011;2046;47.064;15.456;2023-08-30T03:16:59;0.40;;;0.40;;
4061;SDS011;2046;47.064;15.456;2023-08-30T03:19:26;0.60;;;0.60;;
4061;SDS011;2046;47.064;15.456;2023-08-30T03:21:52;0.50;;;0.50;;
4061;SDS011;2046;47.064;15.456;2023-08-30T03:24:19;2.25;;;0.70;;
4061;SDS011;2046;47.064;15.456;2023-08-30T03:26:45;0.80;;;0.70;;
4061;SDS011;2046;47.064;15.456;2023-08-30T03:29:12;0.40;;;0.40;;
4061;SDS011;2046;47.064;15.456;2023-08-30T03:31:39;1.65;;;0.60;;
4061;SDS011;2046;47.064;15.456;2023-08-30T03:34:05;0.60;;;0.60;;
4061;SDS011;2046;47.064;15.456;2023-08-30T03:36:32;0.50;;;0.50;;
4061;SDS011;2046;47.064;15.456;2023-08-30T03:38:58;0.60;;;0.50;;
4061;SDS011;2046;47.064;15.456;2023-08-30T03:41:25;0.93;;;0.50;;
4061;SDS011;2046;47.064;15.456;2023-08-30T03:43:52;1.08;;;0.60;;
4061;SDS011;2046;47.064;15.456;2023-08-30T03:46:19;0.60;;;0.60;;
4061;SDS011;2046;47.064;15.456;2023-08-30T03:48:46;0.50;;;0.50;;
4061;SDS011;2046;47.064;15.456;2023-08-30T03:51:12;0.70;;;0.70;;
4061;SDS011;2046;47.064;15.456;2023-08-30T03:53:39;0.50;;;0.50;;
4061;SDS011;2046;47.064;15.456;2023-08-30T03:56:06;0.50;;;0.50;;
4061;SDS011;2046;47.064;15.456;2023-08-30T03:58:32;0.85;;;0.85;;
4061;SDS011;2046;47.064;15.456;2023-08-30T04:00:59;1.05;;;0.45;;
4061;SDS011;2046;47.064;15.456;2023-08-30T04:03:26;0.50;;;0.50;;
4061;SDS011;2046;47.064;15.456;2023-08-30T04:05:56;1.10;;;0.50;;
4061;SDS011;2046;47.064;15.456;2023-08-30T04:08:23;0.47;;;0.47;;
4061;SDS011;2046;47.064;15.456;2023-08-30T04:10:51;0.52;;;0.52;;
4061;SDS011;2046;47.064;15.456;2023-08-30T04:13:18;0.50;;;0.50;;
4061;SDS011;2046;47.064;15.456;2023-08-30T04:15:45;0.60;;;0.60;;
4061;SDS011;2046;47.064;15.456;2023-08-30T04:18:12;0.80;;;0.80;;
4061;SDS011;2046;47.064;15.456;2023-08-30T04:20:43;0.77;;;0.77;;
4061;SDS011;2046;47.064;15.456;2023-08-30T04:23:10;0.60;;;0.60;;
4061;SDS011;2046;47.064;15.456;2023-08-30T04:25:37;0.80;;;0.80;;
4061;SDS011;2046;47.064;15.456;2023-08-30T04:28:04;0.63;;;0.63;;
4061;SDS011;2046;47.064;15.456;2023-08-30T04:30:31;0.77;;;0.77;;
4061;SDS011;2046;47.064;15.456;2023-08-30T04:32:59;1.15;;;0.98;;
4061;SDS011;2046;47.064;15.456;2023-08-30T04:35:29;0.60;;;0.60;;
4061;SDS011;2046;47.064;15.456;2023-08-30T04:37:57;0.85;;;0.85;;
4061;SDS011;2046;47.064;15.456;2023-08-30T04:40:24;2.00;;;0.80;;
4061;SDS011;2046;47.064;15.456;2023-08-30T04:42:52;2.47;;;0.90;;
4061;SDS011;2046;47.064;15.456;2023-08-30T04:45:19;2.10;;;1.48;;
4061;SDS011;2046;47.064;15.456;2023-08-30T04:47:46;1.08;;;1.08;;
4061;SDS011;2046;47.064;15.456;2023-08-30T04:50:12;1.40;;;1.10;;
4061;SDS011;2046;47.064;15.456;2023-08-30T04:52:39;0.90;;;0.90;;
4061;SDS011;2046;47.064;15.456;2023-08-30T04:55:06;0.80;;;0.80;;
4061;SDS011;2046;47.064;15.456;2023-08-30T04:57:32;1.33;;;1.08;;
4061;SDS011;2046;47.064;15.456;2023-08-30T04:59:59;2.67;;;1.00;;
4061;SDS011;2046;47.064;15.456;2023-08-30T05:02:30;3.90;;;1.15;;
4061;SDS011;2046;47.064;15.456;2023-08-30T05:04:58;2.42;;;0.93;;
4061;SDS011;2046;47.064;15.456;2023-08-30T05:07:25;3.45;;;1.08;;
4061;SDS011;2046;47.064;15.456;2023-08-30T05:09:51;1.75;;;0.90;;
4061;SDS011;2046;47.064;15.456;2023-08-30T05:12:18;1.33;;;1.00;;
4061;SDS011;2046;47.064;15.456;2023-08-30T05:14:45;4.07;;;1.38;;
4061;SDS011;2046;47.064;15.456;2023-08-30T05:17:11;1.80;;;1.20;;
4061;SDS011;2046;47.064;15.456;2023-08-30T05:19:38;1.08;;;1.08;;
4061;SDS011;2046;47.064;15.456;2023-08-30T05:22:05;2.35;;;1.20;;
4061;SDS011;2046;47.064;15.456;2023-08-30T05:24:31;1.50;;;1.40;;
4061;SDS011;2046;47.064;15.456;2023-08-30T05:26:58;1.30;;;1.20;;
4061;SDS011;2046;47.064;15.456;2023-08-30T05:29:25;1.00;;;1.00;;
4061;SDS011;2046;47.064;15.456;2023-08-30T05:31:51;1.40;;;1.30;;
4061;SDS011;2046;47.064;15.456;2023-08-30T05:34:18;1.50;;;1.40;;
4061;SDS011;2046;47.064;15.456;2023-08-30T05:36:44;1.40;;;1.30;;
4061;SDS011;2046;47.064;15.456;2023-08-30T05:39:11;1.42;;;1.33;;
4061;SDS011;2046;47.064;15.456;2023-08-30T05:41:37;1.50;;;1.40;;
4061;SDS011;2046;47.064;15.456;2023-08-30T05:44:04;1.70;;;1.42;;
4061;SDS011;2046;47.064;15.456;2023-08-30T05:46:31;1.50;;;1.20;;
4061;SDS011;2046;47.064;15.456;2023-08-30T05:48:58;1.00;;;1.00;;
4061;SDS011;2046;47.064;15.456;2023-08-30T05:51:26;1.30;;;1.20;;
4061;SDS011;2046;47.064;15.456;2023-08-30T05:53:53;1.38;;;1.27;;
4061;SDS011;2046;47.064;15.456;2023-08-30T05:56:20;1.10;;;1.10;;
4061;SDS011;2046;47.064;15.456;2023-08-30T05:58:46;1.60;;;1.50;;
4061;SDS011;2046;47.064;15.456;2023-08-30T06:01:13;2.50;;;1.38;;
4061;SDS011;2046;47.064;15.456;2023-08-30T06:03:40;1.40;;;1.30;;
4061;SDS011;2046;47.064;15.456;2023-08-30T06:06:07;1.15;;;1.15;;
4061;SDS011;2046;47.064;15.456;2023-08-30T06:08:40;2.17;;;1.63;;
4061;SDS011;2046;47.064;15.456;2023-08-30T06:11:07;1.83;;;1.27;;
4061;SDS011;2046;47.064;15.456;2023-08-30T06:13:34;3.47;;;1.20;;
4061;SDS011;2046;47.064;15.456;2023-08-30T06:16:02;2.15;;;1.40;;
4061;SDS011;2046;47.064;15.456;2023-08-30T06:18:31;4.32;;;1.80;;
4061;SDS011;2046;47.064;15.456;2023-08-30T06:20:58;1.48;;;1.38;;
4061;SDS011;2046;47.064;15.456;2023-08-30T06:23:25;1.23;;;1.05;;
4061;SDS011;2046;47.064;15.456;2023-08-30T06:25:55;1.80;;;1.70;;
4061;SDS011;2046;47.064;15.456;2023-08-30T06:28:22;1.73;;;1.58;;
4061;SDS011;2046;47.064;15.456;2023-08-30T06:30:49;1.40;;;1.30;;
4061;SDS011;2046;47.064;15.456;2023-08-30T06:33:15;1.52;;;1.42;;
4061;SDS011;2046;47.064;15.456;2023-08-30T06:35:42;1.48;;;1.38;;
4061;SDS011;2046;47.064;15.456;2023-08-30T06:38:09;1.38;;;1.27;;
4061;SDS011;2046;47.064;15.456;2023-08-30T06:40:36;1.10;;;1.10;;
4061;SDS011;2046;47.064;15.456;2023-08-30T06:43:03;1.10;;;1.10;;
4061;SDS011;2046;47.064;15.456;2023-08-30T06:45:30;0.98;;;0.98;;
4061;SDS011;2046;47.064;15.456;2023-08-30T06:47:56;1.40;;;1.30;;
4061;SDS011;2046;47.064;15.456;2023-08-30T06:50:23;1.10;;;1.10;;
4061;SDS011;2046;47.064;15.456;2023-08-30T06:52:49;1.08;;;1.08;;
4061;SDS011;2046;47.064;15.456;2023-08-30T06:55:16;2.47;;;1.35;;
4061;SDS011;2046;47.064;15.456;2023-08-30T06:57:47;1.83;;;1.40;;
4061;SDS011;2046;47.064;15.456;2023-08-30T07:00:14;2.15;;;1.20;;
4061;SDS011;2046;47.064;15.456;2023-08-30T07:02:41;1.30;;;1.20;;
4061;SDS011;2046;47.064;15.456;2023-08-30T07:05:11;1.30;;;1.20;;
4061;SDS011;2046;47.064;15.456;2023-08-30T07:07:39;1.70;;;1.30;;
4061;SDS011;2046;47.064;15.456;2023-08-30T07:10:05;1.23;;;1.13;;
4061;SDS011;2046;47.064;15.456;2023-08-30T07:12:32;1.73;;;1.58;;
4061;SDS011;2046;47.064;15.456;2023-08-30T07:14:59;1.60;;;1.30;;
4061;SDS011;2046;47.064;15.456;2023-08-30T07:17:25;1.60;;;1.33;;
4061;SDS011;2046;47.064;15.456;2023-08-30T07:19:59;1.60;;;1.50;;
4061;SDS011;2046;47.064;15.456;2023-08-30T07:22:25;1.60;;;1.50;;
4061;SDS011;2046;47.064;15.456;2023-08-30T07:24:52;1.13;;;1.13;;
4061;SDS011;2046;47.064;15.456;2023-08-30T07:27:19;1.15;;;1.10;;
4061;SDS011;2046;47.064;15.456;2023-08-30T07:29:47;1.30;;;1.30;;
4061;SDS011;2046;47.064;15.456;2023-08-30T07:32:14;1.48;;;1.38;;
4061;SDS011;2046;47.064;15.456;2023-08-30T07:34:41;1.50;;;1.40;;
4061;SDS011;2046;47.064;15.456;2023-08-30T07:37:16;1.23;;;1.13;;
4061;SDS011;2046;47.064;15.456;2023-08-30T07:39:43;1.50;;;1.40;;
4061;SDS011;2046;47.064;15.456;2023-08-30T07:42:09;1.00;;;1.00;;
4061;SDS011;2046;47.064;15.456;2023-08-30T07:44:36;1.70;;;1.02;;
4061;SDS011;2046;47.064;15.456;2023-08-30T07:47:03;1.00;;;1.00;;
4061;SDS011;2046;47.064;15.456;2023-08-30T07:49:30;1.10;;;1.10;;
4061;SDS011;2046;47.064;15.456;2023-08-30T07:51:56;0.73;;;0.73;;
4061;SDS011;2046;47.064;15.456;2023-08-30T07:54:23;1.00;;;1.00;;
4061;SDS011;2046;47.064;15.456;2023-08-30T07:56:50;2.15;;;1.10;;
4061;SDS011;2046;47.064;15.456;2023-08-30T07:59:17;1.05;;;1.00;;
4061;SDS011;2046;47.064;15.456;2023-08-30T08:01:44;2.42;;;1.05;;
4061;SDS011;2046;47.064;15.456;2023-08-30T08:04:12;1.95;;;1.20;;
4061;SDS011;2046;47.064;15.456;2023-08-30T08:06:39;0.95;;;0.95;;
4061;SDS011;2046;47.064;15.456;2023-08-30T08:09:06;0.90;;;0.90;;
4061;SDS011;2046;47.064;15.456;2023-08-30T08:11:34;0.75;;;0.75;;
4061;SDS011;2046;47.064;15.456;2023-08-30T08:14:04;2.42;;;1.00;;
4061;SDS011;2046;47.064;15.456;2023-08-30T08:16:33;0.90;;;0.90;;
4061;SDS011;2046;47.064;15.456;2023-08-30T08:19:01;0.60;;;0.60;;
4061;SDS011;2046;47.064;15.456;2023-08-30T08:21:28;1.00;;;1.00;;
4061;SDS011;2046;47.064;15.456;2023-08-30T08:23:56;0.80;;;0.80;;
4061;SDS011;2046;47.064;15.456;2023-08-30T08:26:22;0.90;;;0.90;;
4061;SDS011;2046;47.064;15.456;2023-08-30T08:28:49;0.70;;;0.70;;
4061;SDS011;2046;47.064;15.456;2023-08-30T08:31:17;1.05;;;0.70;;
4061;SDS011;2046;47.064;15.456;2023-08-30T08:33:44;1.13;;;0.90;;
4061;SDS011;2046;47.064;15.456;2023-08-30T08:36:11;1.02;;;0.90;;
4061;SDS011;2046;47.064;15.456;2023-08-30T08:38:38;1.42;;;1.10;;
4061;SDS011;2046;47.064;15.456;2023-08-30T08:41:05;0.90;;;0.90;;
4061;SDS011;2046;47.064;15.456;2023-08-30T08:43:33;1.05;;;1.00;;
4061;SDS011;2046;47.064;15.456;2023-08-30T08:46:04;0.80;;;0.80;;
4061;SDS011;2046;47.064;15.456;2023-08-30T08:48:33;0.95;;;0.90;;
4061;SDS011;2046;47.064;15.456;2023-08-30T08:51:05;0.80;;;0.80;;
4061;SDS011;2046;47.064;15.456;2023-08-30T08:53:32;1.67;;;1.02;;
4061;SDS011;2046;47.064;15.456;2023-08-30T08:56:00;0.82;;;0.80;;
4061;SDS011;2046;47.064;15.456;2023-08-30T08:58:27;0.77;;;0.77;;
4061;SDS011;2046;47.064;15.456;2023-08-30T09:00:54;1.77;;;1.17;;
4061;SDS011;2046;47.064;15.456;2023-08-30T09:03:21;1.10;;;1.00;;
4061;SDS011;2046;47.064;15.456;2023-08-30T09:05:48;1.25;;;1.15;;
4061;SDS011;2046;47.064;15.456;2023-08-30T09:08:16;0.95;;;0.80;;
4061;SDS011;2046;47.064;15.456;2023-08-30T09:10:43;2.38;;;0.90;;
4061;SDS011;2046;47.064;15.456;2023-08-30T09:13:10;1.40;;;1.10;;
4061;SDS011;2046;47.064;15.456;2023-08-30T09:15:38;1.60;;;1.10;;
4061;SDS011;2046;47.064;15.456;2023-08-30T09:18:14;1.02;;;1.02;;
4061;SDS011;2046;47.064;15.456;2023-08-30T09:20:41;3.40;;;1.00;;
4061;SDS011;2046;47.064;15.456;2023-08-30T09:23:20;0.90;;;0.90;;
4061;SDS011;2046;47.064;15.456;2023-08-30T09:25:59;3.92;;;1.00;;
4061;SDS011;2046;47.064;15.456;2023-08-30T09:28:41;2.40;;;0.90;;
4061;SDS011;2046;47.064;15.456;2023-08-30T09:31:17;3.03;;;1.10;;
4061;SDS011;2046;47.064;15.456;2023-08-30T09:33:57;1.25;;;0.98;;
4061;SDS011;2046;47.064;15.456;2023-08-30T09:39:29;2.05;;;0.95;;
4061;SDS011;2046;47.064;15.456;2023-08-30T09:41:55;0.70;;;0.70;;
4061;SDS011;2046;47.064;15.456;2023-08-30T09:44:22;0.90;;;0.90;;
4061;SDS011;2046;47.064;15.456;2023-08-30T09:46:54;0.95;;;0.80;;
4061;SDS011;2046;47.064;15.456;2023-08-30T09:49:22;1.77;;;1.00;;
4061;SDS011;2046;47.064;15.456;2023-08-30T09:51:50;1.48;;;0.88;;
4061;SDS011;2046;47.064;15.456;2023-08-30T09:54:19;0.80;;;0.80;;
4061;SDS011;2046;47.064;15.456;2023-08-30T09:56:50;1.02;;;1.00;;
4061;SDS011;2046;47.064;15.456;2023-08-30T09:59:20;2.78;;;0.95;;
4061;SDS011;2046;47.064;15.456;2023-08-30T10:01:48;3.42;;;1.20;;
4061;SDS011;2046;47.064;15.456;2023-08-30T10:04:15;1.75;;;1.10;;
4061;SDS011;2046;47.064;15.456;2023-08-30T10:06:42;1.33;;;1.23;;
4061;SDS011;2046;47.064;15.456;2023-08-30T10:09:09;1.20;;;1.10;;
4061;SDS011;2046;47.064;15.456;2023-08-30T10:11:37;1.17;;;0.95;;
4061;SDS011;2046;47.064;15.456;2023-08-30T10:14:04;0.70;;;0.70;;
4061;SDS011;2046;47.064;15.456;2023-08-30T10:16:42;2.83;;;1.58;;
4061;SDS011;2046;47.064;15.456;2023-08-30T10:19:16;0.90;;;0.90;;
4061;SDS011;2046;47.064;15.456;2023-08-30T10:21:43;1.00;;;1.00;;
4061;SDS011;2046;47.064;15.456;2023-08-30T10:24:17;2.47;;;0.90;;
4061;SDS011;2046;47.064;15.456;2023-08-30T10:27:00;9.55;;;1.10;;
4061;SDS011;2046;47.064;15.456;2023-08-30T10:29:28;1.08;;;1.08;;
4061;SDS011;2046;47.064;15.456;2023-08-30T10:31:56;0.90;;;0.90;;
4061;SDS011;2046;47.064;15.456;2023-08-30T10:34:23;0.98;;;0.98;;
4061;SDS011;2046;47.064;15.456;2023-08-30T10:37:00;1.60;;;1.20;;
4061;SDS011;2046;47.064;15.456;2023-08-30T10:39:32;0.77;;;0.77;;
4061;SDS011;2046;47.064;15.456;2023-08-30T10:42:00;1.45;;;1.00;;
4061;SDS011;2046;47.064;15.456;2023-08-30T10:44:27;1.00;;;1.00;;
4061;SDS011;2046;47.064;15.456;2023-08-30T10:46:53;1.20;;;1.10;;
4061;SDS011;2046;47.064;15.456;2023-08-30T10:49:21;1.10;;;1.10;;
4061;SDS011;2046;47.064;15.456;2023-08-30T10:51:57;1.13;;;1.05;;
4061;SDS011;2046;47.064;15.456;2023-08-30T10:54:25;3.17;;;2.10;;
4061;SDS011;2046;47.064;15.456;2023-08-30T10:59:20;1.30;;;1.17;;
4061;SDS011;2046;47.064;15.456;2023-08-30T11:01:47;1.30;;;1.20;;
4061;SDS011;2046;47.064;15.456;2023-08-30T11:04:15;1.45;;;1.25;;
4061;SDS011;2046;47.064;15.456;2023-08-30T11:06:44;1.30;;;1.30;;
4061;SDS011;2046;47.064;15.456;2023-08-30T11:09:29;1.27;;;1.17;;
4061;SDS011;2046;47.064;15.456;2023-08-30T11:11:56;1.25;;;1.15;;
4061;SDS011;2046;47.064;15.456;2023-08-30T11:14:30;1.30;;;1.20;;
4061;SDS011;2046;47.064;15.456;2023-08-30T11:16:58;0.90;;;0.90;;
4061;SDS011;2046;47.064;15.456;2023-08-30T11:19:29;1.10;;;1.00;;
4061;SDS011;2046;47.064;15.456;2023-08-30T11:21:55;1.98;;;1.00;;
4061;SDS011;2046;47.064;15.456;2023-08-30T11:24:22;0.85;;;0.85;;
4061;SDS011;2046;47.064;15.456;2023-08-30T11:26:52;0.80;;;0.80;;
4061;SDS011;2046;47.064;15.456;2023-08-30T11:29:18;1.08;;;0.98;;
4061;SDS011;2046;47.064;15.456;2023-08-30T11:31:45;0.82;;;0.82;;
4061;SDS011;2046;47.064;15.456;2023-08-30T11:34:13;1.58;;;0.93;;
4061;SDS011;2046;47.064;15.456;2023-08-30T11:36:40;0.82;;;0.77;;
4061;SDS011;2046;47.064;15.456;2023-08-30T11:39:06;1.40;;;1.20;;
4061;SDS011;2046;47.064;15.456;2023-08-30T11:41:33;1.08;;;0.80;;
4061;SDS011;2046;47.064;15.456;2023-08-30T11:44:00;1.95;;;0.80;;
4061;SDS011;2046;47.064;15.456;2023-08-30T11:46:27;1.05;;;0.90;;
4061;SDS011;2046;47.064;15.456;2023-08-30T11:48:53;1.02;;;0.80;;
4061;SDS011;2046;47.064;15.456;2023-08-30T11:51:20;0.63;;;0.63;;
4061;SDS011;2046;47.064;15.456;2023-08-30T11:53:47;0.85;;;0.85;;
4061;SDS011;2046;47.064;15.456;2023-08-30T11:56:14;2.25;;;1.00;;
4061;SDS011;2046;47.064;15.456;2023-08-30T11:58:41;3.22;;;1.35;;
4061;SDS011;2046;47.064;15.456;2023-08-30T12:01:08;0.82;;;0.82;;
4061;SDS011;2046;47.064;15.456;2023-08-30T12:03:35;4.32;;;0.70;;
4061;SDS011;2046;47.064;15.456;2023-08-30T12:06:08;0.70;;;0.70;;
4061;SDS011;2046;47.064;15.456;2023-08-30T12:08:38;0.80;;;0.80;;
4061;SDS011;2046;47.064;15.456;2023-08-30T12:11:04;1.75;;;0.90;;
4061;SDS011;2046;47.064;15.456;2023-08-30T12:13:32;1.00;;;1.00;;
4061;SDS011;2046;47.064;15.456;2023-08-30T12:15:59;0.50;;;0.50;;
4061;SDS011;2046;47.064;15.456;2023-08-30T12:18:27;1.08;;;0.90;;
4061;SDS011;2046;47.064;15.456;2023-08-30T12:20:57;1.02;;;0.88;;
4061;SDS011;2046;47.064;15.456;2023-08-30T12:23:26;0.98;;;0.80;;
4061;SDS011;2046;47.064;15.456;2023-08-30T12:26:06;1.05;;;0.85;;
4061;SDS011;2046;47.064;15.456;2023-08-30T12:28:34;1.00;;;0.90;;
4061;SDS011;2046;47.064;15.456;2023-08-30T12:31:01;1.10;;;0.75;;
4061;SDS011;2046;47.064;15.456;2023-08-30T12:33:29;0.95;;;0.90;;
4061;SDS011;2046;47.064;15.456;2023-08-30T12:35:57;0.95;;;0.63;;
4061;SDS011;2046;47.064;15.456;2023-08-30T12:38:24;0.98;;;0.80;;
4061;SDS011;2046;47.064;15.456;2023-08-30T12:40:51;0.60;;;0.60;;
4061;SDS011;2046;47.064;15.456;2023-08-30T12:43:18;0.80;;;0.80;;
4061;SDS011;2046;47.064;15.456;2023-08-30T12:45:46;0.65;;;0.65;;
4061;SDS011;2046;47.064;15.456;2023-08-30T12:48:13;0.70;;;0.70;;
4061;SDS011;2046;47.064;15.456;2023-08-30T12:50:44;0.65;;;0.65;;
4061;SDS011;2046;47.064;15.456;2023-08-30T12:53:11;1.35;;;0.85;;
4061;SDS011;2046;47.064;15.456;2023-08-30T12:55:38;3.88;;;0.70;;
4061;SDS011;2046;47.064;15.456;2023-08-30T12:58:07;3.20;;;0.82;;
4061;SDS011;2046;47.064;15.456;2023-08-30T13:00:35;0.63;;;0.63;;
4061;SDS011;2046;47.064;15.456;2023-08-30T13:03:02;0.50;;;0.50;;
4061;SDS011;2046;47.064;15.456;2023-08-30T13:05:30;0.60;;;0.60;;
4061;SDS011;2046;47.064;15.456;2023-08-30T13:07:59;0.50;;;0.50;;
4061;SDS011;2046;47.064;15.456;2023-08-30T13:10:26;0.75;;;0.70;;
4061;SDS011;2046;47.064;15.456;2023-08-30T13:12:53;0.60;;;0.60;;
4061;SDS011;2046;47.064;15.456;2023-08-30T13:15:21;0.98;;;0.60;;
4061;SDS011;2046;47.064;15.456;2023-08-30T13:17:47;0.65;;;0.65;;
4061;SDS011;2046;47.064;15.456;2023-08-30T13:20:14;1.85;;;0.57;;
4061;SDS011;2046;47.064;15.456;2023-08-30T13:22:41;0.75;;;0.57;;
4061;SDS011;2046;47.064;15.456;2023-08-30T13:25:08;0.85;;;0.70;;
4061;SDS011;2046;47.064;15.456;2023-08-30T13:27:38;0.50;;;0.50;;
4061;SDS011;2046;47.064;15.456;2023-08-30T13:30:05;0.65;;;0.65;;
4061;SDS011;2046;47.064;15.456;2023-08-30T13:32:32;1.95;;;0.70;;
4061;SDS011;2046;47.064;15.456;2023-08-30T13:34:59;0.98;;;0.68;;
4061;SDS011;2046;47.064;15.456;2023-08-30T13:37:26;0.70;;;0.60;;
4061;SDS011;2046;47.064;15.456;2023-08-30T13:39:53;0.80;;;0.80;;
4061;SDS011;2046;47.064;15.456;2023-08-30T13:42:20;0.50;;;0.50;;
4061;SDS011;2046;47.064;15.456;2023-08-30T13:44:51;1.27;;;0.57;;
4061;SDS011;2046;47.064;15.456;2023-08-30T13:47:18;0.70;;;0.70;;
4061;SDS011;2046;47.064;15.456;2023-08-30T13:49:45;2.40;;;0.88;;
4061;SDS011;2046;47.064;15.456;2023-08-30T13:52:12;0.60;;;0.60;;
4061;SDS011;2046;47.064;15.456;2023-08-30T13:54:39;3.13;;;0.80;;
4061;SDS011;2046;47.064;15.456;2023-08-30T13:57:05;0.70;;;0.70;;
4061;SDS011;2046;47.064;15.456;2023-08-30T13:59:32;0.60;;;0.60;;
4061;SDS011;2046;47.064;15.456;2023-08-30T14:01:59;0.90;;;0.90;;
4061;SDS011;2046;47.064;15.456;2023-08-30T14:04:26;0.70;;;0.70;;
4061;SDS011;2046;47.064;15.456;2023-08-30T14:06:53;2.40;;;0.70;;
4061;SDS011;2046;47.064;15.456;2023-08-30T14:09:19;0.93;;;0.70;;
4061;SDS011;2046;47.064;15.456;2023-08-30T14:11:48;3.33;;;0.70;;
4061;SDS011;2046;47.064;15.456;2023-08-30T14:14:14;1.85;;;0.52;;
4061;SDS011;2046;47.064;15.456;2023-08-30T14:16:41;0.82;;;0.68;;
4061;SDS011;2046;47.064;15.456;2023-08-30T14:19:08;0.65;;;0.65;;
4061;SDS011;2046;47.064;15.456;2023-08-30T14:21:34;0.55;;;0.55;;
4061;SDS011;2046;47.064;15.456;2023-08-30T14:24:01;0.50;;;0.50;;
4061;SDS011;2046;47.064;15.456;2023-08-30T14:26:28;2.85;;;0.50;;
4061;SDS011;2046;47.064;15.456;2023-08-30T14:28:55;2.22;;;0.65;;
4061;SDS011;2046;47.064;15.456;2023-08-30T14:31:22;1.75;;;0.50;;
4061;SDS011;2046;47.064;15.456;2023-08-30T14:33:48;1.42;;;1.08;;
4061;SDS011;2046;47.064;15.456;2023-08-30T14:36:15;3.15;;;0.60;;
4061;SDS011;2046;47.064;15.456;2023-08-30T14:38:43;2.22;;;0.70;;
4061;SDS011;2046;47.064;15.456;2023-08-30T14:41:09;0.85;;;0.85;;
4061;SDS011;2046;47.064;15.456;2023-08-30T14:43:36;1.10;;;0.60;;
4061;SDS011;2046;47.064;15.456;2023-08-30T14:46:04;0.60;;;0.60;;
4061;SDS011;2046;47.064;15.456;2023-08-30T14:48:37;2.10;;;0.77;;
4061;SDS011;2046;47.064;15.456;2023-08-30T14:51:04;0.60;;;0.60;;
4061;SDS011;2046;47.064;15.456;2023-08-30T14:53:31;0.60;;;0.60;;
4061;SDS011;2046;47.064;15.456;2023-08-30T14:55:58;0.88;;;0.75;;
4061;SDS011;2046;47.064;15.456;2023-08-30T14:58:24;0.50;;;0.50;;
4061;SDS011;2046;47.064;15.456;2023-08-30T15:00:51;2.20;;;0.70;;
4061;SDS011;2046;47.064;15.456;2023-08-30T15:03:18;2.25;;;0.60;;
4061;SDS011;2046;47.064;15.456;2023-08-30T15:05:51;1.50;;;0.65;;
4061;SDS011;2046;47.064;15.456;2023-08-30T15:08:19;0.85;;;0.60;;
4061;SDS011;2046;47.064;15.456;2023-08-30T15:10:46;0.60;;;0.60;;
4061;SDS011;2046;47.064;15.456;2023-08-30T15:13:12;0.88;;;0.60;;
4061;SDS011;2046;47.064;15.456;2023-08-30T15:15:39;0.47;;;0.47;;